sensor_id;sensor_type;location;lat;lon;timestamp;temperature;humidity
17529;DHT22;8882;53.192;8.184;2022-10-24T04:32:01;14.30;99.90
17529;DHT22;8882;53.192;8.184;2022-10-24T04:34:27;14.40;99.90
17529;DHT22;8882;53.192;8.184;2022-10-24T04:36:52;14.40;99.90
17529;DHT22;8882;53.192;8.184;2022-10-24T04:39:18;14.40;99.90
17529;DHT22;8882;53.192;8.184;2022-10-24T04:41:44;14.40;99.90
17529;DHT22;8882;53.192;8.184;2022-10-24T04:44:10;14.40;99.90
17529;DHT22;8882;53.192;8.184;2022-10-24T04:46:35;14.40;99.90
17529;DHT22;8882;53.192;8.184;2022-10-24T04:49:01;14.40;99.90
17529;DHT22;8882;53.192;8.184;2022-10-24T04:51:27;14.40;99.90
17529;DHT22;8882;53.192;8.184;2022-10-24T04:53:52;14.40;99.90
17529;DHT22;8882;53.192;8.184;2022-10-24T04:56:18;14.30;99.90
17529;DHT22;8882;53.192;8.184;2022-10-24T04:58:44;14.30;99.90
17529;DHT22;8882;53.192;8.184;2022-10-24T05:01:10;14.30;99.90
17529;DHT22;8882;53.192;8.184;2022-10-24T05:03:35;14.40;99.90
17529;DHT22;8882;53.192;8.184;2022-10-24T05:06:01;14.40;99.90
17529;DHT22;8882;53.192;8.184;2022-10-24T05:08:26;14.40;99.90
17529;DHT22;8882;53.192;8.184;2022-10-24T05:10:52;14.40;99.90
17529;DHT22;8882;53.192;8.184;2022-10-24T05:13:18;14.40;99.90
17529;DHT22;8882;53.192;8.184;2022-10-24T05:15:44;14.40;99.90
17529;DHT22;8882;53.192;8.184;2022-10-24T05:18:09;14.40;99.90
17529;DHT22;8882;53.192;8.184;2022-10-24T05:20:35;14.40;99.90
17529;DHT22;8882;53.192;8.184;2022-10-24T05:23:00;14.40;99.90
17529;DHT22;8882;53.192;8.184;2022-10-24T05:25:26;14.40;99.90
17529;DHT22;8882;53.192;8.184;2022-10-24T05:27:51;14.40;99.90
17529;DHT22;8882;53.192;8.184;2022-10-24T05:30:17;14.40;99.90
17529;DHT22;8882;53.192;8.184;2022-10-24T05:32:44;14.40;99.90
17529;DHT22;8882;53.192;8.184;2022-10-24T05:35:10;14.40;99.90
17529;DHT22;8882;53.192;8.184;2022-10-24T05:37:36;14.30;99.90
17529;DHT22;8882;53.192;8.184;2022-10-24T05:40:05;14.30;99.90
17529;DHT22;8882;53.192;8.184;2022-10-24T05:42:30;14.30;99.90
17529;DHT22;8882;53.192;8.184;2022-10-24T05:44:56;14.30;99.90
17529;DHT22;8882;53.192;8.184;2022-10-24T05:47:21;14.20;99.90
17529;DHT22;8882;53.192;8.184;2022-10-24T05:49:47;14.30;99.90
17529;DHT22;8882;53.192;8.184;2022-10-24T05:52:12;14.20;99.90
17529;DHT22;8882;53.192;8.184;2022-10-24T05:54:38;14.20;99.90
17529;DHT22;8882;53.192;8.184;2022-10-24T05:57:03;14.20;99.90
17529;DHT22;8882;53.192;8.184;2022-10-24T05:59:29;14.20;99.90
17529;DHT22;8882;53.192;8.184;2022-10-24T06:01:54;14.20;99.90
17529;DHT22;8882;53.192;8.184;2022-10-24T06:04:20;14.20;99.90
17529;DHT22;8882;53.192;8.184;2022-10-24T06:06:45;14.30;99.90
17529;DHT22;8882;53.192;8.184;2022-10-24T06:09:11;14.30;99.90
17529;DHT22;8882;53.192;8.184;2022-10-24T06:11:37;14.30;99.90
17529;DHT22;8882;53.192;8.184;2022-10-24T06:14:03;14.30;99.90
17529;DHT22;8882;53.192;8.184;2022-10-24T06:16:30;14.30;99.90
17529;DHT22;8882;53.192;8.184;2022-10-24T06:18:56;14.30;99.90
17529;DHT22;8882;53.192;8.184;2022-10-24T06:21:22;14.40;99.90
17529;DHT22;8882;53.192;8.184;2022-10-24T06:23:47;14.30;99.90
17529;DHT22;8882;53.192;8.184;2022-10-24T06:26:13;14.40;99.90
17529;DHT22;8882;53.192;8.184;2022-10-24T06:28:39;14.40;99.90
17529;DHT22;8882;53.192;8.184;2022-10-24T06:31:06;14.40;99.90
17529;DHT22;8882;53.192;8.184;2022-10-24T06:33:32;14.50;99.90
17529;DHT22;8882;53.192;8.184;2022-10-24T06:35:59;14.60;99.90
17529;DHT22;8882;53.192;8.184;2022-10-24T06:38:25;14.60;99.90
17529;DHT22;8882;53.192;8.184;2022-10-24T06:40:51;14.60;99.90
17529;DHT22;8882;53.192;8.184;2022-10-24T06:43:17;14.70;99.90
17529;DHT22;8882;53.192;8.184;2022-10-24T06:45:44;14.60;99.90
17529;DHT22;8882;53.192;8.184;2022-10-24T06:48:10;14.70;99.90
17529;DHT22;8882;53.192;8.184;2022-10-24T06:50:36;14.80;99.90
17529;DHT22;8882;53.192;8.184;2022-10-24T06:53:05;14.80;99.90
17529;DHT22;8882;53.192;8.184;2022-10-24T06:55:31;14.90;99.90
17529;DHT22;8882;53.192;8.184;2022-10-24T06:57:56;14.90;99.90
17529;DHT22;8882;53.192;8.184;2022-10-24T07:00:21;14.90;99.90
17529;DHT22;8882;53.192;8.184;2022-10-24T07:02:47;14.90;99.90
17529;DHT22;8882;53.192;8.184;2022-10-24T07:05:12;15.00;99.90
17529;DHT22;8882;53.192;8.184;2022-10-24T07:07:40;15.00;99.90
17529;DHT22;8882;53.192;8.184;2022-10-24T07:10:07;15.10;99.90
17529;DHT22;8882;53.192;8.184;2022-10-24T07:12:32;15.10;99.90
17529;DHT22;8882;53.192;8.184;2022-10-24T07:14:58;15.10;99.90
17529;DHT22;8882;53.192;8.184;2022-10-24T07:17:23;15.10;99.90
17529;DHT22;8882;53.192;8.184;2022-10-24T07:19:53;15.20;99.90
17529;DHT22;8882;53.192;8.184;2022-10-24T07:22:19;15.20;99.90
17529;DHT22;8882;53.192;8.184;2022-10-24T07:24:44;15.20;99.90
17529;DHT22;8882;53.192;8.184;2022-10-24T07:27:10;15.30;99.90
17529;DHT22;8882;53.192;8.184;2022-10-24T07:29:38;15.40;99.90
17529;DHT22;8882;53.192;8.184;2022-10-24T07:32:04;15.50;99.90
17529;DHT22;8882;53.192;8.184;2022-10-24T07:34:29;15.50;99.90
17529;DHT22;8882;53.192;8.184;2022-10-24T07:36:55;15.60;99.90
17529;DHT22;8882;53.192;8.184;2022-10-24T07:39:20;15.70;99.90
17529;DHT22;8882;53.192;8.184;2022-10-24T07:41:46;15.70;99.90
17529;DHT22;8882;53.192;8.184;2022-10-24T07:44:11;15.80;99.90
17529;DHT22;8882;53.192;8.184;2022-10-24T07:46:40;15.90;99.90
17529;DHT22;8882;53.192;8.184;2022-10-24T07:49:07;16.00;99.90
17529;DHT22;8882;53.192;8.184;2022-10-24T07:51:33;16.00;99.90
17529;DHT22;8882;53.192;8.184;2022-10-24T07:53:59;16.00;99.90
17529;DHT22;8882;53.192;8.184;2022-10-24T07:56:25;16.10;99.90
17529;DHT22;8882;53.192;8.184;2022-10-24T07:58:51;16.10;99.90
17529;DHT22;8882;53.192;8.184;2022-10-24T08:01:19;16.10;99.90
17529;DHT22;8882;53.192;8.184;2022-10-24T08:03:45;16.20;99.90
17529;DHT22;8882;53.192;8.184;2022-10-24T08:06:15;16.20;99.90
17529;DHT22;8882;53.192;8.184;2022-10-24T08:08:40;16.30;99.90
17529;DHT22;8882;53.192;8.184;2022-10-24T08:11:08;16.30;99.90
17529;DHT22;8882;53.192;8.184;2022-10-24T08:13:33;16.40;99.90
17529;DHT22;8882;53.192;8.184;2022-10-24T08:15:59;16.40;99.90
17529;DHT22;8882;53.192;8.184;2022-10-24T08:18:24;16.50;99.90
17529;DHT22;8882;53.192;8.184;2022-10-24T08:20:58;16.50;99.90
17529;DHT22;8882;53.192;8.184;2022-10-24T08:23:24;16.50;99.90
17529;DHT22;8882;53.192;8.184;2022-10-24T08:25:50;16.50;99.90
17529;DHT22;8882;53.192;8.184;2022-10-24T08:28:15;16.60;99.90
17529;DHT22;8882;53.192;8.184;2022-10-24T08:30:41;16.60;99.90
17529;DHT22;8882;53.192;8.184;2022-10-24T08:33:06;16.70;99.90
17529;DHT22;8882;53.192;8.184;2022-10-24T08:35:32;16.80;99.90
17529;DHT22;8882;53.192;8.184;2022-10-24T08:37:57;16.80;99.90
17529;DHT22;8882;53.192;8.184;2022-10-24T08:40:23;16.90;99.90
17529;DHT22;8882;53.192;8.184;2022-10-24T08:42:49;17.00;99.90
17529;DHT22;8882;53.192;8.184;2022-10-24T08:45:21;17.00;99.90
17529;DHT22;8882;53.192;8.184;2022-10-24T08:47:57;17.20;99.90
17529;DHT22;8882;53.192;8.184;2022-10-24T08:50:27;17.30;99.90
17529;DHT22;8882;53.192;8.184;2022-10-24T08:52:57;17.40;99.90
17529;DHT22;8882;53.192;8.184;2022-10-24T08:55:44;17.40;99.90
17529;DHT22;8882;53.192;8.184;2022-10-24T08:58:17;17.40;99.90
17529;DHT22;8882;53.192;8.184;2022-10-24T09:00:46;17.50;99.90
17529;DHT22;8882;53.192;8.184;2022-10-24T09:03:41;17.50;99.90
17529;DHT22;8882;53.192;8.184;2022-10-24T09:06:12;17.70;99.90
17529;DHT22;8882;53.192;8.184;2022-10-24T09:08:57;17.70;99.90
17529;DHT22;8882;53.192;8.184;2022-10-24T09:14:18;17.70;99.90
17529;DHT22;8882;53.192;8.184;2022-10-24T09:16:55;17.70;99.90
17529;DHT22;8882;53.192;8.184;2022-10-24T09:19:24;17.60;99.90
17529;DHT22;8882;53.192;8.184;2022-10-24T09:21:51;17.50;99.90
17529;DHT22;8882;53.192;8.184;2022-10-24T09:24:41;17.60;99.90
17529;DHT22;8882;53.192;8.184;2022-10-24T09:27:16;17.60;99.90
17529;DHT22;8882;53.192;8.184;2022-10-24T09:29:43;17.60;99.90
17529;DHT22;8882;53.192;8.184;2022-10-24T09:32:21;17.50;99.90
17529;DHT22;8882;53.192;8.184;2022-10-24T09:34:48;17.50;99.90
17529;DHT22;8882;53.192;8.184;2022-10-24T09:40:19;17.60;99.90
17529;DHT22;8882;53.192;8.184;2022-10-24T09:43:18;17.50;99.90
17529;DHT22;8882;53.192;8.184;2022-10-24T09:45:50;17.50;99.90
17529;DHT22;8882;53.192;8.184;2022-10-24T09:48:30;17.50;99.90
17529;DHT22;8882;53.192;8.184;2022-10-24T09:51:01;17.50;99.90
17529;DHT22;8882;53.192;8.184;2022-10-24T09:53:31;17.50;99.90
17529;DHT22;8882;53.192;8.184;2022-10-24T09:55:59;17.40;99.90
17529;DHT22;8882;53.192;8.184;2022-10-24T09:58:28;17.40;99.90
17529;DHT22;8882;53.192;8.184;2022-10-24T10:01:09;17.40;99.90
17529;DHT22;8882;53.192;8.184;2022-10-24T10:03:42;17.40;99.90
17529;DHT22;8882;53.192;8.184;2022-10-24T10:06:19;17.40;99.90
17529;DHT22;8882;53.192;8.184;2022-10-24T10:08:54;17.30;99.90
17529;DHT22;8882;53.192;8.184;2022-10-24T10:11:28;17.30;99.90
17529;DHT22;8882;53.192;8.184;2022-10-24T10:13:59;17.30;99.90
17529;DHT22;8882;53.192;8.184;2022-10-24T10:16:32;17.20;99.90
17529;DHT22;8882;53.192;8.184;2022-10-24T10:19:18;17.20;99.90
17529;DHT22;8882;53.192;8.184;2022-10-24T10:24:42;17.20;99.90
17529;DHT22;8882;53.192;8.184;2022-10-24T10:27:30;17.20;99.90
17529;DHT22;8882;53.192;8.184;2022-10-24T10:30:16;17.10;99.90
17529;DHT22;8882;53.192;8.184;2022-10-24T10:33:22;17.10;99.90
17529;DHT22;8882;53.192;8.184;2022-10-24T10:38:50;17.10;99.90
17529;DHT22;8882;53.192;8.184;2022-10-24T10:41:40;17.10;99.90
17529;DHT22;8882;53.192;8.184;2022-10-24T10:44:15;17.10;99.90
17529;DHT22;8882;53.192;8.184;2022-10-24T10:49:37;17.20;99.90
17529;DHT22;8882;53.192;8.184;2022-10-24T10:55:10;17.40;99.90
17529;DHT22;8882;53.192;8.184;2022-10-24T11:00:18;17.40;99.90
17529;DHT22;8882;53.192;8.184;2022-10-24T11:03:00;17.40;99.90
17529;DHT22;8882;53.192;8.184;2022-10-24T11:05:46;17.40;99.90
17529;DHT22;8882;53.192;8.184;2022-10-24T11:08:45;17.40;99.90
17529;DHT22;8882;53.192;8.184;2022-10-24T11:11:16;17.40;99.90
17529;DHT22;8882;53.192;8.184;2022-10-24T11:13:54;17.40;99.90
17529;DHT22;8882;53.192;8.184;2022-10-24T11:16:27;17.30;99.90
17529;DHT22;8882;53.192;8.184;2022-10-24T11:18:58;17.30;99.90
17529;DHT22;8882;53.192;8.184;2022-10-24T11:21:25;17.30;99.90
17529;DHT22;8882;53.192;8.184;2022-10-24T11:24:07;17.30;99.90
17529;DHT22;8882;53.192;8.184;2022-10-24T11:32:20;17.50;99.90
17529;DHT22;8882;53.192;8.184;2022-10-24T11:34:57;17.50;99.90
17529;DHT22;8882;53.192;8.184;2022-10-24T11:37:30;17.50;99.90
17529;DHT22;8882;53.192;8.184;2022-10-24T11:40:02;17.70;99.90
17529;DHT22;8882;53.192;8.184;2022-10-24T11:45:27;17.70;99.90
17529;DHT22;8882;53.192;8.184;2022-10-24T11:47:59;17.70;99.90
17529;DHT22;8882;53.192;8.184;2022-10-24T11:50:37;17.70;99.90
17529;DHT22;8882;53.192;8.184;2022-10-24T11:55:36;17.80;99.90
17529;DHT22;8882;53.192;8.184;2022-10-24T11:58:07;17.70;99.90
17529;DHT22;8882;53.192;8.184;2022-10-24T12:01:03;17.60;99.90
17529;DHT22;8882;53.192;8.184;2022-10-24T12:17:59;16.40;99.90
17529;DHT22;8882;53.192;8.184;2022-10-24T12:20:26;16.30;99.90
17529;DHT22;8882;53.192;8.184;2022-10-24T12:22:52;16.30;99.90
17529;DHT22;8882;53.192;8.184;2022-10-24T12:25:20;16.30;99.90
17529;DHT22;8882;53.192;8.184;2022-10-24T12:28:03;16.20;99.90
17529;DHT22;8882;53.192;8.184;2022-10-24T12:30:31;16.30;99.90
17529;DHT22;8882;53.192;8.184;2022-10-24T12:35:46;16.30;99.90
17529;DHT22;8882;53.192;8.184;2022-10-24T12:40:59;16.30;99.90
17529;DHT22;8882;53.192;8.184;2022-10-24T12:43:41;16.30;99.90
17529;DHT22;8882;53.192;8.184;2022-10-24T12:51:25;16.40;99.90
17529;DHT22;8882;53.192;8.184;2022-10-24T12:56:27;16.30;99.90
17529;DHT22;8882;53.192;8.184;2022-10-24T12:58:59;16.40;99.90
17529;DHT22;8882;53.192;8.184;2022-10-24T13:01:30;16.30;99.90
17529;DHT22;8882;53.192;8.184;2022-10-24T13:04:50;16.30;99.90
17529;DHT22;8882;53.192;8.184;2022-10-24T13:07:42;16.40;99.90
17529;DHT22;8882;53.192;8.184;2022-10-24T13:10:42;16.30;99.90
17529;DHT22;8882;53.192;8.184;2022-10-24T13:18:39;16.30;99.90
17529;DHT22;8882;53.192;8.184;2022-10-24T13:23:39;16.40;99.90
17529;DHT22;8882;53.192;8.184;2022-10-24T13:26:06;16.40;99.90
17529;DHT22;8882;53.192;8.184;2022-10-24T13:28:39;16.60;99.90
17529;DHT22;8882;53.192;8.184;2022-10-24T13:38:38;16.60;99.90
17529;DHT22;8882;53.192;8.184;2022-10-24T13:41:10;16.50;99.90
17529;DHT22;8882;53.192;8.184;2022-10-24T13:43:44;16.50;99.90
17529;DHT22;8882;53.192;8.184;2022-10-24T13:46:22;16.50;99.90
17529;DHT22;8882;53.192;8.184;2022-10-24T13:48:50;16.50;99.90
17529;DHT22;8882;53.192;8.184;2022-10-24T13:51:24;16.50;99.90
17529;DHT22;8882;53.192;8.184;2022-10-24T13:53:57;16.50;99.90
17529;DHT22;8882;53.192;8.184;2022-10-24T13:56:24;16.50;99.90
17529;DHT22;8882;53.192;8.184;2022-10-24T13:58:50;16.50;99.90
17529;DHT22;8882;53.192;8.184;2022-10-24T14:01:24;16.60;99.90
17529;DHT22;8882;53.192;8.184;2022-10-24T14:03:52;16.60;99.90
17529;DHT22;8882;53.192;8.184;2022-10-24T14:06:28;16.60;99.90
17529;DHT22;8882;53.192;8.184;2022-10-24T14:08:57;16.50;99.90
17529;DHT22;8882;53.192;8.184;2022-10-24T14:11:25;16.50;99.90
17529;DHT22;8882;53.192;8.184;2022-10-24T14:14:00;16.50;99.90
17529;DHT22;8882;53.192;8.184;2022-10-24T14:16:31;16.50;99.90
17529;DHT22;8882;53.192;8.184;2022-10-24T14:21:43;16.60;99.90
17529;DHT22;8882;53.192;8.184;2022-10-24T14:24:21;16.50;99.90
17529;DHT22;8882;53.192;8.184;2022-10-24T14:26:48;16.50;99.90
17529;DHT22;8882;53.192;8.184;2022-10-24T14:29:22;16.40;99.90
17529;DHT22;8882;53.192;8.184;2022-10-24T14:32:00;16.30;99.90
17529;DHT22;8882;53.192;8.184;2022-10-24T14:34:26;16.30;99.90
17529;DHT22;8882;53.192;8.184;2022-10-24T14:36:53;16.30;99.90
17529;DHT22;8882;53.192;8.184;2022-10-24T14:39:20;16.30;99.90
17529;DHT22;8882;53.192;8.184;2022-10-24T14:41:49;16.30;99.90
17529;DHT22;8882;53.192;8.184;2022-10-24T14:44:17;16.30;99.90
17529;DHT22;8882;53.192;8.184;2022-10-24T14:46:45;16.20;99.90
17529;DHT22;8882;53.192;8.184;2022-10-24T14:51:53;15.90;99.90
17529;DHT22;8882;53.192;8.184;2022-10-24T14:54:26;15.70;99.90
17529;DHT22;8882;53.192;8.184;2022-10-24T14:56:54;15.50;99.90
17529;DHT22;8882;53.192;8.184;2022-10-24T14:59:36;15.50;99.90
17529;DHT22;8882;53.192;8.184;2022-10-24T15:02:27;15.40;99.90
17529;DHT22;8882;53.192;8.184;2022-10-24T15:07:44;15.30;99.90
17529;DHT22;8882;53.192;8.184;2022-10-24T15:12:43;15.20;99.90
17529;DHT22;8882;53.192;8.184;2022-10-24T15:15:23;15.20;99.90
17529;DHT22;8882;53.192;8.184;2022-10-24T15:17:50;15.20;99.90
17529;DHT22;8882;53.192;8.184;2022-10-24T15:20:19;15.10;99.90
17529;DHT22;8882;53.192;8.184;2022-10-24T15:22:48;15.10;99.90
17529;DHT22;8882;53.192;8.184;2022-10-24T15:25:22;15.10;99.90
17529;DHT22;8882;53.192;8.184;2022-10-24T15:27:50;15.00;99.90
17529;DHT22;8882;53.192;8.184;2022-10-24T15:30:21;15.10;99.90
17529;DHT22;8882;53.192;8.184;2022-10-24T15:32:48;15.10;99.90
17529;DHT22;8882;53.192;8.184;2022-10-24T15:35:16;15.00;99.90
17529;DHT22;8882;53.192;8.184;2022-10-24T15:37:56;15.00;99.90
17529;DHT22;8882;53.192;8.184;2022-10-24T15:40:28;15.00;99.90
17529;DHT22;8882;53.192;8.184;2022-10-24T15:42:54;15.00;99.90
17529;DHT22;8882;53.192;8.184;2022-10-24T15:45:20;15.00;99.90
17529;DHT22;8882;53.192;8.184;2022-10-24T15:47:46;14.90;99.90
17529;DHT22;8882;53.192;8.184;2022-10-24T15:50:19;14.90;99.90
17529;DHT22;8882;53.192;8.184;2022-10-24T15:52:53;15.00;99.90
17529;DHT22;8882;53.192;8.184;2022-10-24T15:55:22;14.90;99.90
17529;DHT22;8882;53.192;8.184;2022-10-24T15:57:48;14.90;99.90
17529;DHT22;8882;53.192;8.184;2022-10-24T16:00:16;14.80;99.90
17529;DHT22;8882;53.192;8.184;2022-10-24T16:02:42;14.80;99.90
17529;DHT22;8882;53.192;8.184;2022-10-24T16:05:19;14.70;99.90
17529;DHT22;8882;53.192;8.184;2022-10-24T16:07:46;14.70;99.90
17529;DHT22;8882;53.192;8.184;2022-10-24T16:10:14;14.70;99.90
17529;DHT22;8882;53.192;8.184;2022-10-24T16:12:41;14.70;99.90
17529;DHT22;8882;53.192;8.184;2022-10-24T16:15:19;14.70;99.90
17529;DHT22;8882;53.192;8.184;2022-10-24T16:17:45;14.60;99.90
17529;DHT22;8882;53.192;8.184;2022-10-24T16:20:10;14.60;99.90
17529;DHT22;8882;53.192;8.184;2022-10-24T16:22:36;14.60;99.90
17529;DHT22;8882;53.192;8.184;2022-10-24T16:25:02;14.60;99.90
17529;DHT22;8882;53.192;8.184;2022-10-24T16:27:28;14.60;99.90
17529;DHT22;8882;53.192;8.184;2022-10-24T16:29:54;14.60;99.90
17529;DHT22;8882;53.192;8.184;2022-10-24T16:32:19;14.70;99.90
17529;DHT22;8882;53.192;8.184;2022-10-24T16:34:45;14.80;99.90
17529;DHT22;8882;53.192;8.184;2022-10-24T16:37:13;14.90;99.90
17529;DHT22;8882;53.192;8.184;2022-10-24T16:39:39;14.80;99.90
17529;DHT22;8882;53.192;8.184;2022-10-24T16:42:07;14.80;99.90
17529;DHT22;8882;53.192;8.184;2022-10-24T16:44:32;14.80;99.90
17529;DHT22;8882;53.192;8.184;2022-10-24T16:47:02;14.80;99.90
17529;DHT22;8882;53.192;8.184;2022-10-24T16:49:27;14.90;99.90
17529;DHT22;8882;53.192;8.184;2022-10-24T16:51:55;14.90;99.90
17529;DHT22;8882;53.192;8.184;2022-10-24T16:54:21;14.70;99.90
17529;DHT22;8882;53.192;8.184;2022-10-24T16:56:47;14.70;99.90
17529;DHT22;8882;53.192;8.184;2022-10-24T16:59:14;14.60;99.90
17529;DHT22;8882;53.192;8.184;2022-10-24T17:01:40;14.50;99.90
17529;DHT22;8882;53.192;8.184;2022-10-24T17:04:06;14.50;99.90
17529;DHT22;8882;53.192;8.184;2022-10-24T17:06:31;14.50;99.90
17529;DHT22;8882;53.192;8.184;2022-10-24T17:08:57;14.40;99.90
17529;DHT22;8882;53.192;8.184;2022-10-24T17:11:22;14.40;99.90
17529;DHT22;8882;53.192;8.184;2022-10-24T17:13:48;14.40;99.90
17529;DHT22;8882;53.192;8.184;2022-10-24T17:16:13;14.40;99.90
17529;DHT22;8882;53.192;8.184;2022-10-24T17:18:39;14.40;99.90
17529;DHT22;8882;53.192;8.184;2022-10-24T17:21:05;14.40;99.90
17529;DHT22;8882;53.192;8.184;2022-10-24T17:23:31;14.30;99.90
17529;DHT22;8882;53.192;8.184;2022-10-24T17:25:57;14.20;99.90
17529;DHT22;8882;53.192;8.184;2022-10-24T17:28:23;14.30;99.90
17529;DHT22;8882;53.192;8.184;2022-10-24T17:30:49;14.20;99.90
17529;DHT22;8882;53.192;8.184;2022-10-24T17:33:15;14.20;99.90
17529;DHT22;8882;53.192;8.184;2022-10-24T17:35:46;14.20;99.90
17529;DHT22;8882;53.192;8.184;2022-10-24T17:41:38;14.20;99.90
17529;DHT22;8882;53.192;8.184;2022-10-24T17:44:06;14.20;99.90
17529;DHT22;8882;53.192;8.184;2022-10-24T17:46:32;14.20;99.90
17529;DHT22;8882;53.192;8.184;2022-10-24T17:48:57;14.20;99.90
17529;DHT22;8882;53.192;8.184;2022-10-24T17:51:24;14.20;99.90
17529;DHT22;8882;53.192;8.184;2022-10-24T17:53:50;14.10;99.90
17529;DHT22;8882;53.192;8.184;2022-10-24T17:56:16;14.10;99.90
17529;DHT22;8882;53.192;8.184;2022-10-24T17:58:42;14.10;99.90
17529;DHT22;8882;53.192;8.184;2022-10-24T18:01:08;14.10;99.90
17529;DHT22;8882;53.192;8.184;2022-10-24T18:03:35;14.10;99.90
17529;DHT22;8882;53.192;8.184;2022-10-24T18:06:05;14.10;99.90
17529;DHT22;8882;53.192;8.184;2022-10-24T18:08:31;14.10;99.90
17529;DHT22;8882;53.192;8.184;2022-10-24T18:11:05;14.00;99.90
17529;DHT22;8882;53.192;8.184;2022-10-24T18:13:34;14.00;99.90
17529;DHT22;8882;53.192;8.184;2022-10-24T18:16:05;14.00;99.90
17529;DHT22;8882;53.192;8.184;2022-10-24T18:18:31;14.00;99.90
17529;DHT22;8882;53.192;8.184;2022-10-24T18:21:05;14.10;99.90
17529;DHT22;8882;53.192;8.184;2022-10-24T18:23:33;14.00;99.90
17529;DHT22;8882;53.192;8.184;2022-10-24T18:26:00;14.00;99.90
17529;DHT22;8882;53.192;8.184;2022-10-24T18:28:29;14.00;99.90
17529;DHT22;8882;53.192;8.184;2022-10-24T18:30:54;14.00;99.90
17529;DHT22;8882;53.192;8.184;2022-10-24T18:33:20;14.00;99.90
17529;DHT22;8882;53.192;8.184;2022-10-24T18:35:45;14.00;99.90
17529;DHT22;8882;53.192;8.184;2022-10-24T18:38:11;14.00;99.90
17529;DHT22;8882;53.192;8.184;2022-10-24T18:40:37;13.90;99.90
17529;DHT22;8882;53.192;8.184;2022-10-24T18:43:04;13.80;99.90
17529;DHT22;8882;53.192;8.184;2022-10-24T18:45:30;13.80;99.90
17529;DHT22;8882;53.192;8.184;2022-10-24T18:47:56;13.90;99.90
17529;DHT22;8882;53.192;8.184;2022-10-24T18:50:23;13.90;99.90
17529;DHT22;8882;53.192;8.184;2022-10-24T18:53:05;13.80;99.90
17529;DHT22;8882;53.192;8.184;2022-10-24T18:55:32;13.80;99.90
17529;DHT22;8882;53.192;8.184;2022-10-24T18:57:58;13.80;99.90
17529;DHT22;8882;53.192;8.184;2022-10-24T19:00:27;13.80;99.90
17529;DHT22;8882;53.192;8.184;2022-10-24T19:05:21;13.70;99.90
17529;DHT22;8882;53.192;8.184;2022-10-24T19:07:48;13.70;99.90
17529;DHT22;8882;53.192;8.184;2022-10-24T19:12:45;13.80;99.90
17529;DHT22;8882;53.192;8.184;2022-10-24T19:15:11;13.80;99.90
17529;DHT22;8882;53.192;8.184;2022-10-24T19:17:36;13.80;99.90
17529;DHT22;8882;53.192;8.184;2022-10-24T19:20:02;13.80;99.90
17529;DHT22;8882;53.192;8.184;2022-10-24T19:22:28;13.80;99.90
17529;DHT22;8882;53.192;8.184;2022-10-24T19:24:54;13.80;99.90
17529;DHT22;8882;53.192;8.184;2022-10-24T19:27:23;13.80;99.90
17529;DHT22;8882;53.192;8.184;2022-10-24T19:29:48;13.70;99.90
17529;DHT22;8882;53.192;8.184;2022-10-24T19:32:14;13.70;99.90
17529;DHT22;8882;53.192;8.184;2022-10-24T19:34:39;13.70;99.90
17529;DHT22;8882;53.192;8.184;2022-10-24T19:37:05;13.50;99.90
17529;DHT22;8882;53.192;8.184;2022-10-24T19:39:32;13.50;99.90
17529;DHT22;8882;53.192;8.184;2022-10-24T19:41:57;13.50;99.90
17529;DHT22;8882;53.192;8.184;2022-10-24T19:44:23;13.40;99.90
17529;DHT22;8882;53.192;8.184;2022-10-24T19:46:49;13.40;99.90
17529;DHT22;8882;53.192;8.184;2022-10-24T19:49:14;13.40;99.90
17529;DHT22;8882;53.192;8.184;2022-10-24T19:51:40;13.30;99.90
17529;DHT22;8882;53.192;8.184;2022-10-24T19:54:05;13.30;99.90
17529;DHT22;8882;53.192;8.184;2022-10-24T19:56:31;13.20;99.90
17529;DHT22;8882;53.192;8.184;2022-10-24T19:58:57;13.10;99.90
17529;DHT22;8882;53.192;8.184;2022-10-24T20:01:25;13.20;99.90
17529;DHT22;8882;53.192;8.184;2022-10-24T20:03:51;13.10;99.90
17529;DHT22;8882;53.192;8.184;2022-10-24T20:06:19;13.10;99.90
17529;DHT22;8882;53.192;8.184;2022-10-24T20:08:45;13.10;99.90
17529;DHT22;8882;53.192;8.184;2022-10-24T20:11:11;13.10;99.90
17529;DHT22;8882;53.192;8.184;2022-10-24T20:13:39;13.00;99.90
17529;DHT22;8882;53.192;8.184;2022-10-24T20:16:05;13.00;99.90
17529;DHT22;8882;53.192;8.184;2022-10-24T20:18:33;13.00;99.90
17529;DHT22;8882;53.192;8.184;2022-10-24T20:21:01;13.00;99.90
17529;DHT22;8882;53.192;8.184;2022-10-24T20:23:28;13.10;99.90
17529;DHT22;8882;53.192;8.184;2022-10-24T20:26:00;13.10;99.90
17529;DHT22;8882;53.192;8.184;2022-10-24T20:28:26;13.10;99.90
17529;DHT22;8882;53.192;8.184;2022-10-24T20:30:52;13.10;99.90
17529;DHT22;8882;53.192;8.184;2022-10-24T20:33:17;13.10;99.90
17529;DHT22;8882;53.192;8.184;2022-10-24T20:35:43;13.10;99.90
17529;DHT22;8882;53.192;8.184;2022-10-24T20:38:09;13.10;99.90
17529;DHT22;8882;53.192;8.184;2022-10-24T20:40:35;13.10;99.90
17529;DHT22;8882;53.192;8.184;2022-10-24T20:43:01;13.00;99.90
17529;DHT22;8882;53.192;8.184;2022-10-24T20:45:29;13.00;99.90
17529;DHT22;8882;53.192;8.184;2022-10-24T20:47:58;13.00;99.90
17529;DHT22;8882;53.192;8.184;2022-10-24T20:50:25;12.90;99.90
17529;DHT22;8882;53.192;8.184;2022-10-24T20:52:50;12.90;99.90
17529;DHT22;8882;53.192;8.184;2022-10-24T20:55:16;12.80;99.90
17529;DHT22;8882;53.192;8.184;2022-10-24T20:57:42;12.80;99.90
17529;DHT22;8882;53.192;8.184;2022-10-24T21:00:08;12.80;99.90
